sensor_id;sensor_type;location;lat;lon;timestamp;pressure;altitude;pressure_sealevel;temperature;humidity
47260;BME280;32999;52.412;4.890;2023-02-12T00:02:38;103872.81;;;10.73;100.00
47260;BME280;32999;52.412;4.890;2023-02-12T00:07:44;103877.31;;;10.72;100.00
47260;BME280;32999;52.412;4.890;2023-02-12T00:12:47;103865.81;;;10.59;100.00
47260;BME280;32999;52.412;4.890;2023-02-12T00:17:49;103868.38;;;10.61;100.00
47260;BME280;32999;52.412;4.890;2023-02-12T00:22:56;103862.16;;;10.60;100.00
47260;BME280;32999;52.412;4.890;2023-02-12T00:28:01;103867.97;;;10.54;100.00
47260;BME280;32999;52.412;4.890;2023-02-12T00:33:03;103871.28;;;10.45;100.00
47260;BME280;32999;52.412;4.890;2023-02-12T00:38:13;103868.03;;;10.29;100.00
47260;BME280;32999;52.412;4.890;2023-02-12T00:43:16;103859.69;;;10.20;100.00
47260;BME280;32999;52.412;4.890;2023-02-12T00:48:18;103859.13;;;10.15;100.00
47260;BME280;32999;52.412;4.890;2023-02-12T00:53:20;103858.63;;;10.10;100.00
47260;BME280;32999;52.412;4.890;2023-02-12T00:58:36;103854.78;;;10.02;100.00
47260;BME280;32999;52.412;4.890;2023-02-12T01:03:51;103854.28;;;9.84;100.00
47260;BME280;32999;52.412;4.890;2023-02-12T01:09:07;103853.53;;;9.82;100.00
47260;BME280;32999;52.412;4.890;2023-02-12T01:14:21;103862.72;;;9.78;100.00
47260;BME280;32999;52.412;4.890;2023-02-12T01:19:45;103853.53;;;9.57;100.00
47260;BME280;32999;52.412;4.890;2023-02-12T01:24:48;103884.38;;;9.48;100.00
47260;BME280;32999;52.412;4.890;2023-02-12T01:29:56;103873.59;;;9.37;100.00
47260;BME280;32999;52.412;4.890;2023-02-12T01:35:00;103868.00;;;9.27;100.00
47260;BME280;32999;52.412;4.890;2023-02-12T01:40:03;103797.00;;;8.72;100.00
47260;BME280;32999;52.412;4.890;2023-02-12T01:45:42;103867.53;;;9.08;100.00
47260;BME280;32999;52.412;4.890;2023-02-12T01:50:46;103869.47;;;9.06;100.00
47260;BME280;32999;52.412;4.890;2023-02-12T01:55:56;103861.34;;;9.07;100.00
47260;BME280;32999;52.412;4.890;2023-02-12T02:01:00;103870.31;;;9.06;100.00
47260;BME280;32999;52.412;4.890;2023-02-12T02:06:07;103870.97;;;9.10;100.00
47260;BME280;32999;52.412;4.890;2023-02-12T02:11:11;103871.81;;;9.10;100.00
47260;BME280;32999;52.412;4.890;2023-02-12T02:16:34;103837.84;;;9.00;100.00
47260;BME280;32999;52.412;4.890;2023-02-12T02:22:03;103858.59;;;9.09;100.00
47260;BME280;32999;52.412;4.890;2023-02-12T02:27:17;103860.91;;;9.01;100.00
47260;BME280;32999;52.412;4.890;2023-02-12T02:32:23;103856.91;;;8.94;100.00
47260;BME280;32999;52.412;4.890;2023-02-12T02:37:30;103863.44;;;8.90;100.00
47260;BME280;32999;52.412;4.890;2023-02-12T02:42:36;103816.34;;;8.49;100.00
47260;BME280;32999;52.412;4.890;2023-02-12T02:47:44;103719.75;;;8.04;100.00
47260;BME280;32999;52.412;4.890;2023-02-12T02:52:50;103827.09;;;8.74;100.00
47260;BME280;32999;52.412;4.890;2023-02-12T02:57:56;103771.09;;;8.35;100.00
47260;BME280;32999;52.412;4.890;2023-02-12T03:03:04;103771.44;;;8.29;100.00
47260;BME280;32999;52.412;4.890;2023-02-12T03:08:12;103783.19;;;8.53;100.00
47260;BME280;32999;52.412;4.890;2023-02-12T03:13:21;103719.50;;;8.22;100.00
47260;BME280;32999;52.412;4.890;2023-02-12T03:18:31;103839.56;;;9.01;100.00
47260;BME280;32999;52.412;4.890;2023-02-12T03:23:43;103715.03;;;8.22;100.00
47260;BME280;32999;52.412;4.890;2023-02-12T03:28:50;103827.19;;;9.00;100.00
47260;BME280;32999;52.412;4.890;2023-02-12T03:34:01;103752.38;;;8.49;100.00
47260;BME280;32999;52.412;4.890;2023-02-12T03:39:08;103690.41;;;8.18;100.00
47260;BME280;32999;52.412;4.890;2023-02-12T03:44:21;103838.19;;;9.08;100.00
47260;BME280;32999;52.412;4.890;2023-02-12T03:49:31;103834.22;;;9.01;100.00
47260;BME280;32999;52.412;4.890;2023-02-12T03:54:35;103825.47;;;8.99;100.00
47260;BME280;32999;52.412;4.890;2023-02-12T03:59:37;103821.94;;;8.98;100.00
47260;BME280;32999;52.412;4.890;2023-02-12T04:04:42;103833.19;;;9.16;100.00
47260;BME280;32999;52.412;4.890;2023-02-12T04:09:44;103862.16;;;9.35;100.00
47260;BME280;32999;52.412;4.890;2023-02-12T04:14:52;103866.34;;;9.39;100.00
47260;BME280;32999;52.412;4.890;2023-02-12T04:20:04;103873.06;;;9.44;100.00
47260;BME280;32999;52.412;4.890;2023-02-12T04:25:16;103848.06;;;9.33;100.00
47260;BME280;32999;52.412;4.890;2023-02-12T04:30:23;103839.63;;;9.26;100.00
47260;BME280;32999;52.412;4.890;2023-02-12T04:35:33;103874.03;;;9.56;100.00
47260;BME280;32999;52.412;4.890;2023-02-12T04:40:39;103890.72;;;9.60;100.00
47260;BME280;32999;52.412;4.890;2023-02-12T04:45:41;103878.72;;;9.52;100.00
47260;BME280;32999;52.412;4.890;2023-02-12T04:50:44;103836.53;;;9.32;100.00
47260;BME280;32999;52.412;4.890;2023-02-12T04:55:46;103830.19;;;9.20;100.00
47260;BME280;32999;52.412;4.890;2023-02-12T05:00:50;103899.34;;;9.76;100.00
47260;BME280;32999;52.412;4.890;2023-02-12T05:05:54;103870.59;;;9.67;100.00
47260;BME280;32999;52.412;4.890;2023-02-12T05:10:55;103893.59;;;9.82;100.00
47260;BME280;32999;52.412;4.890;2023-02-12T05:15:57;103882.28;;;9.78;100.00
47260;BME280;32999;52.412;4.890;2023-02-12T05:21:02;103896.47;;;9.92;100.00
47260;BME280;32999;52.412;4.890;2023-02-12T05:26:05;103885.34;;;9.98;100.00
47260;BME280;32999;52.412;4.890;2023-02-12T05:31:09;103844.97;;;9.77;100.00
47260;BME280;32999;52.412;4.890;2023-02-12T05:36:15;103867.63;;;9.97;100.00
47260;BME280;32999;52.412;4.890;2023-02-12T05:41:20;103879.59;;;10.04;100.00
47260;BME280;32999;52.412;4.890;2023-02-12T05:46:22;103891.34;;;10.14;100.00
47260;BME280;32999;52.412;4.890;2023-02-12T05:51:26;103890.16;;;10.05;100.00
47260;BME280;32999;52.412;4.890;2023-02-12T05:56:31;103911.72;;;10.15;100.00
47260;BME280;32999;52.412;4.890;2023-02-12T06:01:35;103794.69;;;9.58;100.00
47260;BME280;32999;52.412;4.890;2023-02-12T06:06:38;103817.19;;;9.67;100.00
47260;BME280;32999;52.412;4.890;2023-02-12T06:11:41;103880.00;;;10.10;100.00
47260;BME280;32999;52.412;4.890;2023-02-12T06:16:44;103759.31;;;9.42;100.00
47260;BME280;32999;52.412;4.890;2023-02-12T06:21:47;103783.56;;;9.51;100.00
47260;BME280;32999;52.412;4.890;2023-02-12T06:26:49;103896.47;;;10.30;100.00
47260;BME280;32999;52.412;4.890;2023-02-12T06:31:51;103898.19;;;10.31;100.00
47260;BME280;32999;52.412;4.890;2023-02-12T06:36:55;103806.72;;;9.76;100.00
47260;BME280;32999;52.412;4.890;2023-02-12T06:41:57;103917.84;;;10.30;100.00
47260;BME280;32999;52.412;4.890;2023-02-12T06:46:59;103846.25;;;9.97;100.00
47260;BME280;32999;52.412;4.890;2023-02-12T06:52:02;103925.78;;;10.31;100.00
47260;BME280;32999;52.412;4.890;2023-02-12T06:57:04;103907.81;;;10.33;100.00
47260;BME280;32999;52.412;4.890;2023-02-12T07:02:05;103805.56;;;9.68;100.00
47260;BME280;32999;52.412;4.890;2023-02-12T07:07:09;103891.34;;;10.14;100.00
47260;BME280;32999;52.412;4.890;2023-02-12T07:12:10;103804.09;;;9.64;100.00
47260;BME280;32999;52.412;4.890;2023-02-12T07:17:12;103902.25;;;10.23;100.00
47260;BME280;32999;52.412;4.890;2023-02-12T07:22:15;103833.44;;;9.89;100.00
47260;BME280;32999;52.412;4.890;2023-02-12T07:27:17;103830.66;;;9.78;100.00
47260;BME280;32999;52.412;4.890;2023-02-12T07:32:18;103932.03;;;10.43;100.00
47260;BME280;32999;52.412;4.890;2023-02-12T07:37:21;103844.13;;;9.89;100.00
47260;BME280;32999;52.412;4.890;2023-02-12T07:42:23;103923.41;;;10.27;100.00
47260;BME280;32999;52.412;4.890;2023-02-12T07:47:25;103880.75;;;10.12;100.00
47260;BME280;32999;52.412;4.890;2023-02-12T07:52:28;103918.41;;;10.35;100.00
47260;BME280;32999;52.412;4.890;2023-02-12T07:57:30;103847.84;;;9.99;100.00
47260;BME280;32999;52.412;4.890;2023-02-12T08:02:31;103914.28;;;10.42;100.00
47260;BME280;32999;52.412;4.890;2023-02-12T08:07:34;103871.78;;;10.13;100.00
47260;BME280;32999;52.412;4.890;2023-02-12T08:12:37;103950.38;;;10.73;100.00
47260;BME280;32999;52.412;4.890;2023-02-12T08:17:38;103941.72;;;10.69;100.00
47260;BME280;32999;52.412;4.890;2023-02-12T08:22:44;103971.19;;;10.93;100.00
47260;BME280;32999;52.412;4.890;2023-02-12T08:27:45;103922.56;;;10.75;100.00
47260;BME280;32999;52.412;4.890;2023-02-12T08:32:48;103893.41;;;10.60;100.00
47260;BME280;32999;52.412;4.890;2023-02-12T08:37:51;103890.78;;;10.71;100.00
47260;BME280;32999;52.412;4.890;2023-02-12T08:42:52;103945.13;;;11.08;100.00
47260;BME280;32999;52.412;4.890;2023-02-12T08:47:54;103986.66;;;11.37;100.00
47260;BME280;32999;52.412;4.890;2023-02-12T08:52:57;103983.28;;;11.46;100.00
47260;BME280;32999;52.412;4.890;2023-02-12T08:57:59;103943.97;;;11.23;100.00
47260;BME280;32999;52.412;4.890;2023-02-12T09:03:02;103980.13;;;11.52;100.00
47260;BME280;32999;52.412;4.890;2023-02-12T09:08:05;103909.84;;;11.14;100.00
47260;BME280;32999;52.412;4.890;2023-02-12T09:13:07;103919.25;;;11.19;100.00
47260;BME280;32999;52.412;4.890;2023-02-12T09:18:09;103979.19;;;11.65;100.00
47260;BME280;32999;52.412;4.890;2023-02-12T09:23:13;103998.66;;;11.79;100.00
47260;BME280;32999;52.412;4.890;2023-02-12T09:28:15;103906.31;;;11.37;100.00
47260;BME280;32999;52.412;4.890;2023-02-12T09:33:17;104012.91;;;11.91;100.00
47260;BME280;32999;52.412;4.890;2023-02-12T09:38:27;103932.78;;;11.53;100.00
47260;BME280;32999;52.412;4.890;2023-02-12T09:43:43;103990.81;;;12.11;100.00
47260;BME280;32999;52.412;4.890;2023-02-12T09:48:47;103990.31;;;12.06;100.00
47260;BME280;32999;52.412;4.890;2023-02-12T09:53:59;104000.06;;;12.18;100.00
47260;BME280;32999;52.412;4.890;2023-02-12T09:59:04;103981.06;;;12.21;100.00
47260;BME280;32999;52.412;4.890;2023-02-12T10:04:06;103993.41;;;12.35;100.00
47260;BME280;32999;52.412;4.890;2023-02-12T10:09:21;103990.59;;;12.37;100.00
47260;BME280;32999;52.412;4.890;2023-02-12T10:20:26;103998.41;;;12.51;100.00
47260;BME280;32999;52.412;4.890;2023-02-12T10:25:43;104000.94;;;12.64;100.00
47260;BME280;32999;52.412;4.890;2023-02-12T10:30:51;103977.44;;;12.56;100.00
47260;BME280;32999;52.412;4.890;2023-02-12T10:35:57;103987.53;;;12.75;100.00
47260;BME280;32999;52.412;4.890;2023-02-12T10:41:01;103995.56;;;12.75;100.00
47260;BME280;32999;52.412;4.890;2023-02-12T10:46:03;103981.19;;;12.76;100.00
47260;BME280;32999;52.412;4.890;2023-02-12T10:51:20;103953.03;;;12.48;100.00
47260;BME280;32999;52.412;4.890;2023-02-12T10:56:25;103994.59;;;12.76;100.00
47260;BME280;32999;52.412;4.890;2023-02-12T11:01:28;103988.63;;;12.83;100.00
47260;BME280;32999;52.412;4.890;2023-02-12T11:06:31;103882.59;;;12.12;100.00
47260;BME280;32999;52.412;4.890;2023-02-12T11:11:37;103917.56;;;12.11;100.00
47260;BME280;32999;52.412;4.890;2023-02-12T11:16:45;103859.06;;;11.93;100.00
47260;BME280;32999;52.412;4.890;2023-02-12T11:21:51;103979.34;;;12.76;100.00
47260;BME280;32999;52.412;4.890;2023-02-12T11:27:20;103981.75;;;12.90;100.00
47260;BME280;32999;52.412;4.890;2023-02-12T11:32:22;103982.28;;;12.84;100.00
47260;BME280;32999;52.412;4.890;2023-02-12T11:37:24;103978.13;;;12.80;100.00
47260;BME280;32999;52.412;4.890;2023-02-12T11:42:31;103955.44;;;12.62;100.00
47260;BME280;32999;52.412;4.890;2023-02-12T11:47:39;103969.59;;;12.64;100.00
47260;BME280;32999;52.412;4.890;2023-02-12T11:52:41;103892.81;;;12.30;100.00
47260;BME280;32999;52.412;4.890;2023-02-12T11:57:45;103882.31;;;12.15;100.00
47260;BME280;32999;52.412;4.890;2023-02-12T12:02:49;103993.38;;;12.69;100.00
47260;BME280;32999;52.412;4.890;2023-02-12T12:07:57;103987.78;;;12.72;100.00
47260;BME280;32999;52.412;4.890;2023-02-12T12:13:04;103902.94;;;12.37;100.00
47260;BME280;32999;52.412;4.890;2023-02-12T12:18:19;103934.63;;;12.54;100.00
47260;BME280;32999;52.412;4.890;2023-02-12T12:23:43;103948.66;;;12.58;100.00
47260;BME280;32999;52.412;4.890;2023-02-12T12:28:50;103918.66;;;12.53;100.00
47260;BME280;32999;52.412;4.890;2023-02-12T12:33:58;103940.59;;;12.58;100.00
47260;BME280;32999;52.412;4.890;2023-02-12T12:39:15;103949.09;;;12.74;100.00
47260;BME280;32999;52.412;4.890;2023-02-12T12:44:32;103915.22;;;12.40;100.00
47260;BME280;32999;52.412;4.890;2023-02-12T12:49:58;103860.28;;;12.23;100.00
47260;BME280;32999;52.412;4.890;2023-02-12T12:55:21;103953.97;;;12.80;100.00
47260;BME280;32999;52.412;4.890;2023-02-12T13:00:37;103856.28;;;12.06;100.00
47260;BME280;32999;52.412;4.890;2023-02-12T13:06:07;103928.03;;;12.58;100.00
47260;BME280;32999;52.412;4.890;2023-02-12T13:11:27;103945.19;;;12.67;100.00
47260;BME280;32999;52.412;4.890;2023-02-12T13:16:39;103829.94;;;12.00;100.00
47260;BME280;32999;52.412;4.890;2023-02-12T13:21:50;103828.22;;;12.21;100.00
47260;BME280;32999;52.412;4.890;2023-02-12T13:26:56;103916.53;;;12.68;100.00
47260;BME280;32999;52.412;4.890;2023-02-12T13:32:03;103920.47;;;12.52;100.00
47260;BME280;32999;52.412;4.890;2023-02-12T13:37:11;103828.00;;;12.02;100.00
47260;BME280;32999;52.412;4.890;2023-02-12T13:42:22;103914.22;;;12.63;100.00
47260;BME280;32999;52.412;4.890;2023-02-12T13:47:46;103839.56;;;12.25;100.00
47260;BME280;32999;52.412;4.890;2023-02-12T13:52:56;103835.16;;;12.13;100.00
47260;BME280;32999;52.412;4.890;2023-02-12T14:03:40;103871.34;;;12.41;100.00
47260;BME280;32999;52.412;4.890;2023-02-12T14:08:43;103783.03;;;11.95;100.00
47260;BME280;32999;52.412;4.890;2023-02-12T14:13:52;103824.84;;;12.08;100.00
47260;BME280;32999;52.412;4.890;2023-02-12T14:24:52;103870.34;;;12.53;100.00
47260;BME280;32999;52.412;4.890;2023-02-12T14:30:25;103820.53;;;12.17;100.00
47260;BME280;32999;52.412;4.890;2023-02-12T14:35:34;103884.50;;;12.55;100.00
47260;BME280;32999;52.412;4.890;2023-02-12T14:40:43;103892.78;;;12.52;100.00
47260;BME280;32999;52.412;4.890;2023-02-12T14:46:41;103872.56;;;12.48;100.00
47260;BME280;32999;52.412;4.890;2023-02-12T14:51:38;103875.03;;;11.95;100.00
47260;BME280;32999;52.412;4.890;2023-02-12T14:56:47;103894.41;;;11.87;100.00
47260;BME280;32999;52.412;4.890;2023-02-12T15:01:52;103853.53;;;11.73;100.00
47260;BME280;32999;52.412;4.890;2023-02-12T15:06:58;103826.63;;;11.17;100.00
47260;BME280;32999;52.412;4.890;2023-02-12T15:12:14;103875.22;;;11.70;100.00
47260;BME280;32999;52.412;4.890;2023-02-12T15:17:20;103782.22;;;11.14;100.00
47260;BME280;32999;52.412;4.890;2023-02-12T15:22:28;103877.78;;;11.71;100.00
47260;BME280;32999;52.412;4.890;2023-02-12T15:27:34;103793.31;;;11.21;100.00
47260;BME280;32999;52.412;4.890;2023-02-12T15:32:37;103809.09;;;11.02;100.00
47260;BME280;32999;52.412;4.890;2023-02-12T15:37:39;103756.19;;;10.70;100.00
47260;BME280;32999;52.412;4.890;2023-02-12T15:42:53;103844.38;;;11.07;100.00
47260;BME280;32999;52.412;4.890;2023-02-12T15:48:09;103863.22;;;11.40;100.00
47260;BME280;32999;52.412;4.890;2023-02-12T15:53:12;103810.34;;;11.20;100.00
47260;BME280;32999;52.412;4.890;2023-02-12T15:58:22;103803.91;;;11.11;100.00
47260;BME280;32999;52.412;4.890;2023-02-12T16:03:26;103819.00;;;11.23;100.00
47260;BME280;32999;52.412;4.890;2023-02-12T16:08:30;103858.34;;;11.34;100.00
47260;BME280;32999;52.412;4.890;2023-02-12T16:13:36;103858.19;;;11.24;100.00
47260;BME280;32999;52.412;4.890;2023-02-12T16:18:39;103817.38;;;10.75;100.00
47260;BME280;32999;52.412;4.890;2023-02-12T16:23:44;103856.81;;;11.19;100.00
47260;BME280;32999;52.412;4.890;2023-02-12T16:28:49;103805.88;;;10.85;100.00
47260;BME280;32999;52.412;4.890;2023-02-12T16:33:53;103856.97;;;10.94;100.00
47260;BME280;32999;52.412;4.890;2023-02-12T16:44:54;103869.97;;;11.11;100.00
47260;BME280;32999;52.412;4.890;2023-02-12T16:49:57;103879.44;;;11.15;100.00
47260;BME280;32999;52.412;4.890;2023-02-12T16:55:00;103854.25;;;11.06;100.00
47260;BME280;32999;52.412;4.890;2023-02-12T17:00:18;103771.00;;;10.63;100.00
47260;BME280;32999;52.412;4.890;2023-02-12T17:05:21;103782.31;;;10.43;100.00
47260;BME280;32999;52.412;4.890;2023-02-12T17:10:24;103871.06;;;10.84;100.00
47260;BME280;32999;52.412;4.890;2023-02-12T17:15:32;103860.44;;;11.07;100.00
47260;BME280;32999;52.412;4.890;2023-02-12T17:20:37;103865.72;;;11.19;100.00
47260;BME280;32999;52.412;4.890;2023-02-12T17:25:46;103870.69;;;11.13;100.00
47260;BME280;32999;52.412;4.890;2023-02-12T17:30:49;103880.28;;;11.15;100.00
47260;BME280;32999;52.412;4.890;2023-02-12T17:35:51;103883.25;;;10.88;100.00
47260;BME280;32999;52.412;4.890;2023-02-12T17:40:53;103825.69;;;10.59;100.00
47260;BME280;32999;52.412;4.890;2023-02-12T17:45:56;103904.28;;;11.17;100.00
47260;BME280;32999;52.412;4.890;2023-02-12T17:50:59;103918.88;;;11.13;100.00
47260;BME280;32999;52.412;4.890;2023-02-12T17:56:01;103902.09;;;11.11;100.00
47260;BME280;32999;52.412;4.890;2023-02-12T18:01:05;103828.84;;;10.64;100.00
47260;BME280;32999;52.412;4.890;2023-02-12T18:06:08;103919.09;;;11.10;100.00
47260;BME280;32999;52.412;4.890;2023-02-12T18:11:13;103914.97;;;11.17;100.00
47260;BME280;32999;52.412;4.890;2023-02-12T18:16:16;103903.81;;;11.23;100.00
47260;BME280;32999;52.412;4.890;2023-02-12T18:21:18;103903.81;;;11.23;100.00
47260;BME280;32999;52.412;4.890;2023-02-12T18:26:20;103822.09;;;10.71;100.00
47260;BME280;32999;52.412;4.890;2023-02-12T18:31:24;103920.16;;;11.31;100.00
47260;BME280;32999;52.412;4.890;2023-02-12T18:36:26;103905.97;;;11.18;100.00
47260;BME280;32999;52.412;4.890;2023-02-12T18:41:29;103911.56;;;11.15;100.00
47260;BME280;32999;52.412;4.890;2023-02-12T18:46:33;103917.78;;;10.91;100.00
47260;BME280;32999;52.412;4.890;2023-02-12T18:51:34;103917.59;;;10.58;100.00
47260;BME280;32999;52.412;4.890;2023-02-12T18:56:41;103910.13;;;10.50;100.00
47260;BME280;32999;52.412;4.890;2023-02-12T19:01:45;103796.06;;;9.64;100.00
47260;BME280;32999;52.412;4.890;2023-02-12T19:06:50;103909.91;;;10.15;100.00
47260;BME280;32999;52.412;4.890;2023-02-12T19:11:55;103857.78;;;10.10;100.00
47260;BME280;32999;52.412;4.890;2023-02-12T19:16:58;103861.19;;;10.25;100.00
47260;BME280;32999;52.412;4.890;2023-02-12T19:22:00;103873.91;;;10.34;100.00
47260;BME280;32999;52.412;4.890;2023-02-12T19:27:02;103898.91;;;10.69;100.00
47260;BME280;32999;52.412;4.890;2023-02-12T19:32:05;103918.91;;;10.40;100.00
47260;BME280;32999;52.412;4.890;2023-02-12T19:37:07;103826.88;;;10.06;100.00
47260;BME280;32999;52.412;4.890;2023-02-12T19:42:10;103902.34;;;10.71;100.00
47260;BME280;32999;52.412;4.890;2023-02-12T19:47:24;103754.59;;;9.71;100.00
47260;BME280;32999;52.412;4.890;2023-02-12T19:52:26;103837.22;;;10.36;100.00
47260;BME280;32999;52.412;4.890;2023-02-12T19:57:31;103756.41;;;9.83;100.00
47260;BME280;32999;52.412;4.890;2023-02-12T20:02:37;103837.59;;;10.42;100.00
47260;BME280;32999;52.412;4.890;2023-02-12T20:07:40;103842.84;;;10.44;100.00
47260;BME280;32999;52.412;4.890;2023-02-12T20:12:41;103894.31;;;10.71;100.00
47260;BME280;32999;52.412;4.890;2023-02-12T20:17:45;103919.78;;;10.77;100.00
47260;BME280;32999;52.412;4.890;2023-02-12T20:22:47;103899.75;;;10.82;100.00
47260;BME280;32999;52.412;4.890;2023-02-12T20:27:49;103887.78;;;10.75;100.00
47260;BME280;32999;52.412;4.890;2023-02-12T20:33:00;103807.75;;;9.99;100.00
47260;BME280;32999;52.412;4.890;2023-02-12T20:38:05;103845.91;;;10.27;100.00
47260;BME280;32999;52.412;4.890;2023-02-12T20:43:07;103898.06;;;10.69;100.00
47260;BME280;32999;52.412;4.890;2023-02-12T20:48:11;103897.50;;;10.76;100.00
47260;BME280;32999;52.412;4.890;2023-02-12T20:53:12;103918.47;;;10.82;100.00
47260;BME280;32999;52.412;4.890;2023-02-12T20:58:14;103900.56;;;10.59;100.00
47260;BME280;32999;52.412;4.890;2023-02-12T21:03:18;103887.69;;;10.64;100.00
47260;BME280;32999;52.412;4.890;2023-02-12T21:08:20;103806.84;;;9.75;100.00
47260;BME280;32999;52.412;4.890;2023-02-12T21:13:22;103813.88;;;9.88;100.00
47260;BME280;32999;52.412;4.890;2023-02-12T21:18:26;103798.41;;;9.43;100.00
47260;BME280;32999;52.412;4.890;2023-02-12T21:23:29;103834.50;;;9.48;100.00
47260;BME280;32999;52.412;4.890;2023-02-12T21:28:31;103892.06;;;10.16;100.00
47260;BME280;32999;52.412;4.890;2023-02-12T21:33:38;103836.97;;;9.77;100.00
47260;BME280;32999;52.412;4.890;2023-02-12T21:38:41;103762.09;;;9.40;100.00
47260;BME280;32999;52.412;4.890;2023-02-12T21:43:45;103905.31;;;10.43;100.00
47260;BME280;32999;52.412;4.890;2023-02-12T21:48:49;103894.63;;;10.43;100.00
47260;BME280;32999;52.412;4.890;2023-02-12T21:53:57;103910.13;;;10.50;100.00
47260;BME280;32999;52.412;4.890;2023-02-12T21:59:09;103904.44;;;10.55;100.00
47260;BME280;32999;52.412;4.890;2023-02-12T22:04:37;103905.81;;;10.61;100.00
47260;BME280;32999;52.412;4.890;2023-02-12T22:09:56;103881.63;;;10.62;100.00
47260;BME280;32999;52.412;4.890;2023-02-12T22:15:09;103867.97;;;10.54;100.00
47260;BME280;32999;52.412;4.890;2023-02-12T22:20:18;103874.31;;;10.64;100.00
47260;BME280;32999;52.412;4.890;2023-02-12T22:25:37;103877.53;;;10.69;100.00
47260;BME280;32999;52.412;4.890;2023-02-12T22:30:40;103866.72;;;10.71;100.00
47260;BME280;32999;52.412;4.890;2023-02-12T22:35:43;103883.28;;;10.76;100.00
47260;BME280;32999;52.412;4.890;2023-02-12T22:40:44;103864.63;;;10.63;100.00
47260;BME280;32999;52.412;4.890;2023-02-12T22:45:48;103865.34;;;10.65;100.00
47260;BME280;32999;52.412;4.890;2023-02-12T22:50:52;103802.91;;;10.30;100.00
47260;BME280;32999;52.412;4.890;2023-02-12T22:55:55;103859.44;;;10.73;100.00
47260;BME280;32999;52.412;4.890;2023-02-12T23:00:56;103862.97;;;10.73;100.00
47260;BME280;32999;52.412;4.890;2023-02-12T23:06:01;103852.47;;;10.70;100.00
47260;BME280;32999;52.412;4.890;2023-02-12T23:11:03;103855.38;;;10.67;100.00
47260;BME280;32999;52.412;4.890;2023-02-12T23:16:06;103849.28;;;10.65;100.00
47260;BME280;32999;52.412;4.890;2023-02-12T23:21:12;103850.13;;;10.66;100.00
47260;BME280;32999;52.412;4.890;2023-02-12T23:26:17;103861.69;;;10.66;100.00
47260;BME280;32999;52.412;4.890;2023-02-12T23:31:19;103854.94;;;10.73;100.00
47260;BME280;32999;52.412;4.890;2023-02-12T23:36:22;103841.03;;;10.68;100.00
47260;BME280;32999;52.412;4.890;2023-02-12T23:41:24;103854.41;;;10.68;100.00
47260;BME280;32999;52.412;4.890;2023-02-12T23:46:26;103858.78;;;10.69;100.00
47260;BME280;32999;52.412;4.890;2023-02-12T23:51:29;103748.97;;;10.12;100.00
47260;BME280;32999;52.412;4.890;2023-02-12T23:56:31;103832.97;;;10.57;100.00
